createdAt,value
2017-07-23T00:00:29.778Z,5.08
2017-07-23T00:02:58.045Z,4.10
2017-07-23T00:05:26.303Z,6.06
2017-07-23T00:07:54.600Z,4.98
2017-07-23T00:10:22.931Z,4.14
2017-07-23T00:12:51.199Z,4.02
2017-07-23T00:15:19.456Z,4.12
2017-07-23T00:17:47.756Z,4.42
2017-07-23T00:20:15.250Z,4.44
2017-07-23T00:22:43.561Z,4.44
2017-07-23T00:25:11.057Z,5.14
2017-07-23T00:27:39.322Z,5.06
2017-07-23T00:30:07.641Z,4.86
2017-07-23T00:32:35.918Z,5.44
2017-07-23T00:35:04.193Z,5.10
2017-07-23T00:37:32.484Z,5.56
2017-07-23T00:40:00.787Z,4.90
2017-07-23T00:42:29.057Z,6.14
2017-07-23T00:44:57.335Z,4.80
2017-07-23T00:47:24.872Z,5.48
2017-07-23T00:49:53.134Z,4.94
2017-07-23T00:52:21.428Z,5.14
2017-07-23T00:54:49.719Z,5.54
2017-07-23T00:57:18.027Z,5.28
2017-07-23T00:59:46.280Z,4.64
2017-07-23T01:02:14.540Z,4.82
2017-07-23T01:04:42.883Z,5.40
2017-07-23T01:07:11.159Z,5.50
2017-07-23T01:09:39.415Z,4.80
2017-07-23T01:12:07.711Z,4.96
2017-07-23T01:14:35.972Z,4.94
2017-07-23T01:17:04.291Z,5.26
2017-07-23T01:19:32.553Z,5.50
2017-07-23T01:22:00.812Z,5.60
2017-07-23T01:24:29.114Z,5.78
2017-07-23T01:26:57.396Z,5.66
2017-07-23T01:29:25.668Z,5.04
2017-07-23T01:31:53.963Z,5.14
2017-07-23T01:34:22.267Z,4.94
2017-07-23T01:36:50.544Z,5.50
2017-07-23T01:39:18.823Z,5.10
2017-07-23T01:41:47.113Z,6.10
2017-07-23T01:44:15.378Z,4.44
2017-07-23T01:46:43.647Z,6.08
2017-07-23T01:49:11.187Z,5.68
2017-07-23T01:51:39.482Z,5.02
2017-07-23T01:54:07.746Z,5.68
2017-07-23T01:56:36.025Z,5.64
2017-07-23T01:59:04.333Z,5.12
2017-07-23T02:01:32.601Z,6.40
2017-07-23T02:04:00.867Z,6.20
2017-07-23T02:06:29.169Z,7.38
2017-07-23T02:08:57.425Z,7.40
2017-07-23T02:11:26.644Z,6.64
2017-07-23T02:13:54.919Z,5.94
2017-07-23T02:16:23.182Z,6.26
2017-07-23T02:18:51.491Z,5.94
2017-07-23T02:21:19.767Z,5.80
2017-07-23T02:23:48.043Z,6.24
2017-07-23T02:26:15.580Z,6.62
2017-07-23T02:28:43.852Z,5.74
2017-07-23T02:31:12.158Z,6.04
2017-07-23T02:33:40.469Z,5.92
2017-07-23T02:36:08.718Z,5.78
2017-07-23T02:38:36.987Z,6.14
2017-07-23T02:41:05.289Z,5.78
2017-07-23T02:43:33.607Z,6.42
2017-07-23T02:46:01.870Z,6.50
2017-07-23T02:48:30.128Z,5.08
2017-07-23T02:50:58.404Z,5.16
2017-07-23T02:53:26.713Z,5.92
2017-07-23T02:55:54.250Z,6.30
2017-07-23T02:58:22.520Z,6.86
2017-07-23T03:00:50.019Z,7.34
2017-07-23T03:03:18.339Z,7.68
2017-07-23T03:05:46.612Z,7.36
2017-07-23T03:08:14.878Z,8.18
2017-07-23T03:10:42.408Z,10.40
2017-07-23T03:13:10.748Z,8.70
2017-07-23T03:15:39.025Z,8.18
2017-07-23T03:18:07.284Z,7.86
2017-07-23T03:20:35.598Z,8.14
2017-07-23T03:23:03.859Z,7.70
2017-07-23T03:25:32.123Z,7.62
2017-07-23T03:28:00.438Z,6.96
2017-07-23T03:30:28.718Z,5.68
2017-07-23T03:32:57.025Z,6.16
2017-07-23T03:35:25.307Z,6.70
2017-07-23T03:37:53.608Z,5.52
2017-07-23T03:40:21.928Z,5.52
2017-07-23T03:42:50.204Z,5.38
2017-07-23T03:45:18.467Z,5.60
2017-07-23T03:47:46.762Z,4.56
2017-07-23T03:50:15.031Z,4.66
2017-07-23T03:52:43.311Z,5.44
2017-07-23T03:55:11.604Z,5.10
2017-07-23T03:57:39.881Z,4.96
2017-07-23T04:00:08.185Z,4.36
2017-07-23T04:02:36.444Z,4.48
2017-07-23T04:05:04.706Z,5.28
2017-07-23T04:07:33.007Z,3.76
2017-07-23T04:10:01.263Z,4.90
2017-07-23T04:12:29.526Z,4.30
2017-07-23T04:14:57.817Z,4.40
2017-07-23T04:17:26.109Z,3.90
2017-07-23T04:19:54.380Z,4.02
2017-07-23T04:22:22.674Z,3.70
2017-07-23T04:24:50.930Z,3.96
2017-07-23T04:27:19.220Z,3.82
2017-07-23T04:29:47.469Z,3.60
2017-07-23T04:32:15.715Z,3.52
2017-07-23T04:34:44.004Z,3.60
2017-07-23T04:37:12.272Z,3.86
2017-07-23T04:39:40.574Z,3.38
2017-07-23T04:42:08.835Z,4.24
2017-07-23T04:44:37.093Z,4.04
2017-07-23T04:47:05.397Z,4.10
2017-07-23T04:49:33.652Z,3.88
2017-07-23T04:52:01.902Z,3.70
2017-07-23T04:54:30.214Z,4.14
2017-07-23T04:56:58.477Z,4.32
2017-07-23T04:59:26.725Z,4.42
2017-07-23T05:01:55.013Z,4.04
2017-07-23T05:04:22.504Z,4.08
2017-07-23T05:06:50.791Z,4.32
2017-07-23T05:09:18.276Z,4.70
2017-07-23T05:11:46.591Z,4.26
2017-07-23T05:14:14.892Z,5.36
2017-07-23T05:16:43.157Z,5.16
2017-07-23T05:19:11.411Z,4.26
2017-07-23T05:21:39.708Z,5.00
2017-07-23T05:24:07.969Z,4.42
2017-07-23T05:26:36.270Z,4.70
2017-07-23T05:29:04.520Z,4.84
2017-07-23T05:31:32.786Z,4.66
2017-07-23T05:34:01.090Z,5.02
2017-07-23T05:36:29.351Z,4.42
2017-07-23T05:38:57.614Z,4.72
2017-07-23T05:41:25.898Z,4.72
2017-07-23T05:43:54.158Z,4.78
2017-07-23T05:46:22.451Z,4.12
2017-07-23T05:48:50.721Z,4.12
2017-07-23T05:51:19.000Z,4.22
2017-07-23T05:53:47.308Z,3.94
2017-07-23T05:56:15.561Z,4.28
2017-07-23T05:58:43.823Z,4.42
2017-07-23T06:01:12.104Z,3.94
2017-07-23T06:03:40.375Z,4.56
2017-07-23T06:06:08.654Z,4.28
2017-07-23T06:08:36.924Z,4.50
2017-07-23T06:11:05.443Z,5.52
2017-07-23T06:13:33.707Z,4.40
2017-07-23T06:16:01.969Z,4.28
2017-07-23T06:18:30.282Z,4.50
2017-07-23T06:20:58.531Z,4.50
2017-07-23T06:23:26.787Z,4.82
2017-07-23T06:25:55.087Z,4.74
2017-07-23T06:28:23.359Z,4.18
2017-07-23T06:30:51.635Z,4.24
2017-07-23T06:33:19.951Z,4.38
2017-07-23T06:35:48.203Z,3.84
2017-07-23T06:38:16.463Z,4.42
2017-07-23T06:40:44.755Z,3.88
2017-07-23T06:43:13.055Z,4.50
2017-07-23T06:45:41.315Z,3.90
2017-07-23T06:48:09.579Z,4.20
2017-07-23T06:50:37.879Z,4.48
2017-07-23T06:53:06.135Z,3.80
2017-07-23T06:55:34.388Z,3.34
2017-07-23T06:58:02.697Z,3.62
2017-07-23T07:00:30.964Z,3.84
2017-07-23T07:02:59.212Z,3.90
2017-07-23T07:05:27.522Z,4.14
2017-07-23T07:07:55.772Z,3.88
2017-07-23T07:10:24.029Z,4.26
2017-07-23T07:12:52.336Z,4.46
2017-07-23T07:15:20.593Z,3.98
2017-07-23T07:17:48.853Z,4.72
2017-07-23T07:20:17.145Z,3.72
2017-07-23T07:22:45.403Z,3.38
2017-07-23T07:25:13.708Z,4.58
2017-07-23T07:27:41.959Z,3.52
2017-07-23T07:30:10.219Z,4.40
2017-07-23T07:32:38.515Z,4.46
2017-07-23T07:35:06.770Z,4.02
2017-07-23T07:37:35.036Z,3.52
2017-07-23T07:40:03.335Z,3.88
2017-07-23T07:42:31.602Z,4.50
2017-07-23T07:44:59.855Z,3.62
2017-07-23T07:47:27.380Z,3.80
2017-07-23T07:49:55.630Z,4.10
2017-07-23T07:52:23.908Z,3.56
2017-07-23T07:54:52.188Z,3.64
2017-07-23T07:57:20.444Z,3.40
2017-07-23T07:59:48.727Z,4.10
2017-07-23T08:02:16.988Z,3.76
2017-07-23T08:04:45.293Z,3.46
2017-07-23T08:07:13.558Z,3.34
2017-07-23T08:09:41.812Z,3.70
2017-07-23T08:12:10.103Z,3.40
2017-07-23T08:14:38.362Z,3.20
2017-07-23T08:17:06.640Z,3.58
2017-07-23T08:19:34.944Z,3.42
2017-07-23T08:22:03.190Z,3.68
2017-07-23T08:24:31.455Z,4.02
2017-07-23T08:26:58.975Z,3.62
2017-07-23T08:29:27.232Z,3.02
2017-07-23T08:31:55.529Z,3.32
2017-07-23T08:34:23.795Z,3.42
2017-07-23T08:36:52.054Z,3.76
2017-07-23T08:39:20.361Z,3.20
2017-07-23T08:41:48.626Z,3.28
2017-07-23T08:44:16.897Z,2.70
2017-07-23T08:46:45.196Z,3.04
2017-07-23T08:49:12.735Z,3.00
2017-07-23T08:51:40.986Z,2.92
2017-07-23T08:54:09.240Z,3.18
2017-07-23T08:56:37.521Z,2.96
2017-07-23T08:59:05.780Z,3.72
2017-07-23T09:01:34.090Z,3.28
2017-07-23T09:04:02.359Z,3.20
2017-07-23T09:06:30.616Z,3.60
2017-07-23T09:08:58.916Z,2.78
2017-07-23T09:11:26.429Z,3.02
2017-07-23T09:13:54.727Z,3.30
2017-07-23T09:16:22.219Z,3.02
2017-07-23T09:18:50.543Z,3.00
2017-07-23T09:21:18.801Z,2.80
2017-07-23T09:23:47.060Z,2.78
2017-07-23T09:26:15.358Z,3.52
2017-07-23T09:28:43.613Z,2.86
2017-07-23T09:31:11.874Z,2.68
2017-07-23T09:33:40.175Z,3.04
2017-07-23T09:36:08.440Z,3.06
2017-07-23T09:38:36.690Z,2.84
2017-07-23T09:41:04.975Z,2.98
2017-07-23T09:43:33.239Z,3.46
2017-07-23T09:46:01.506Z,3.42
2017-07-23T09:48:29.792Z,2.54
2017-07-23T09:50:59.086Z,3.82
2017-07-23T09:53:27.347Z,3.10
2017-07-23T09:55:55.707Z,2.96
2017-07-23T09:58:23.211Z,2.66
2017-07-23T10:00:51.471Z,3.02
2017-07-23T10:03:19.760Z,3.30
2017-07-23T10:05:48.015Z,2.82
2017-07-23T10:08:16.307Z,3.02
2017-07-23T10:10:44.568Z,3.26
2017-07-23T10:13:12.851Z,4.14
2017-07-23T10:15:41.202Z,2.98
2017-07-23T10:18:09.456Z,2.92
2017-07-23T10:20:37.704Z,3.18
2017-07-23T10:23:05.981Z,3.22
2017-07-23T10:25:34.235Z,3.26
2017-07-23T10:28:02.535Z,5.72
2017-07-23T10:30:30.796Z,2.80
2017-07-23T10:32:59.057Z,3.68
2017-07-23T10:35:27.343Z,3.22
2017-07-23T10:37:55.613Z,3.36
2017-07-23T10:40:23.904Z,2.96
2017-07-23T10:42:52.197Z,3.08
2017-07-23T10:45:20.563Z,3.18
2017-07-23T10:47:48.879Z,3.38
2017-07-23T10:50:18.123Z,2.96
2017-07-23T10:52:46.376Z,2.92
2017-07-23T10:55:13.899Z,3.04
2017-07-23T10:57:42.161Z,2.44
2017-07-23T11:00:10.461Z,2.52
2017-07-23T11:02:38.718Z,2.90
2017-07-23T11:05:06.967Z,2.88
2017-07-23T11:07:35.283Z,2.94
2017-07-23T11:10:03.572Z,3.00
2017-07-23T11:12:31.848Z,3.12
2017-07-23T11:15:00.170Z,3.02
2017-07-23T11:17:27.688Z,3.72
2017-07-23T11:19:55.979Z,3.66
2017-07-23T11:22:24.238Z,3.10
2017-07-23T11:24:52.544Z,2.94
2017-07-23T11:27:20.815Z,3.00
2017-07-23T11:29:49.089Z,3.00
2017-07-23T11:32:17.376Z,3.52
2017-07-23T11:34:44.868Z,3.08
2017-07-23T11:37:15.118Z,3.02
2017-07-23T11:39:43.366Z,2.72
2017-07-23T11:42:11.623Z,2.84
2017-07-23T11:44:39.916Z,3.42
2017-07-23T11:47:08.176Z,2.96
2017-07-23T11:49:35.704Z,3.08
2017-07-23T11:52:03.973Z,3.08
2017-07-23T11:54:32.264Z,3.08
2017-07-23T11:57:00.565Z,3.14
2017-07-23T11:59:28.873Z,3.02
2017-07-23T12:01:58.115Z,2.72
2017-07-23T12:04:26.398Z,2.96
2017-07-23T12:06:53.929Z,2.90
2017-07-23T12:09:22.178Z,3.12
2017-07-23T12:11:54.009Z,3.22
2017-07-23T12:14:21.517Z,3.12
2017-07-23T12:16:49.837Z,2.72
2017-07-23T12:19:18.099Z,3.36
2017-07-23T12:21:46.371Z,3.10
2017-07-23T12:24:14.665Z,2.50
2017-07-23T12:26:43.894Z,2.72
2017-07-23T12:29:12.153Z,2.78
2017-07-23T12:31:40.419Z,3.00
2017-07-23T12:34:08.718Z,3.66
2017-07-23T12:36:36.994Z,3.22
2017-07-23T12:39:05.253Z,3.64
2017-07-23T12:41:33.532Z,2.94
2017-07-23T12:44:01.786Z,4.28
2017-07-23T12:46:30.077Z,2.98
2017-07-23T12:48:58.335Z,3.10
2017-07-23T12:51:26.627Z,3.40
2017-07-23T12:53:54.893Z,3.16
2017-07-23T12:56:23.169Z,3.54
2017-07-23T12:58:51.451Z,3.38
2017-07-23T13:01:19.753Z,3.14
2017-07-23T13:03:48.023Z,2.68
2017-07-23T13:06:16.288Z,3.24
2017-07-23T13:08:44.585Z,3.38
2017-07-23T13:11:12.857Z,3.08
2017-07-23T13:13:41.169Z,2.98
2017-07-23T13:16:09.425Z,2.92
2017-07-23T13:18:37.697Z,2.64
2017-07-23T13:21:06.003Z,3.30
2017-07-23T13:23:34.256Z,3.24
2017-07-23T13:26:02.532Z,3.04
2017-07-23T13:28:30.827Z,3.56
2017-07-23T13:30:59.093Z,2.90
2017-07-23T13:33:27.397Z,4.22
2017-07-23T13:35:55.659Z,3.22
2017-07-23T13:38:24.886Z,3.42
2017-07-23T13:40:53.171Z,2.94
2017-07-23T13:43:21.455Z,3.34
2017-07-23T13:45:49.742Z,3.68
2017-07-23T13:48:17.987Z,2.88
2017-07-23T13:50:46.238Z,2.34
2017-07-23T13:53:14.528Z,2.50
2017-07-23T13:55:42.821Z,3.06
2017-07-23T13:58:11.122Z,3.68
2017-07-23T14:00:40.290Z,2.66
2017-07-23T14:03:08.544Z,2.92
2017-07-23T14:05:37.003Z,2.74
2017-07-23T14:08:05.339Z,2.60
2017-07-23T14:10:33.628Z,3.20
2017-07-23T14:13:01.974Z,2.60
2017-07-23T14:15:30.244Z,3.32
2017-07-23T14:17:58.540Z,2.80
2017-07-23T14:20:26.037Z,2.26
2017-07-23T14:22:54.345Z,2.58
2017-07-23T14:25:22.620Z,2.62
2017-07-23T14:27:50.876Z,2.56
2017-07-23T14:30:19.167Z,2.80
2017-07-23T14:32:47.436Z,3.12
2017-07-23T14:35:15.748Z,2.60
2017-07-23T14:37:44.004Z,2.80
2017-07-23T14:40:12.258Z,3.26
2017-07-23T14:42:40.566Z,3.12
2017-07-23T14:45:08.824Z,2.84
2017-07-23T14:47:37.133Z,3.32
2017-07-23T14:50:05.444Z,3.46
2017-07-23T14:52:33.704Z,3.26
2017-07-23T14:55:01.965Z,3.48
2017-07-23T14:57:30.254Z,3.20
2017-07-23T14:59:58.525Z,3.02
2017-07-23T15:02:26.809Z,2.60
2017-07-23T15:04:55.119Z,2.98
2017-07-23T15:07:23.383Z,4.70
2017-07-23T15:09:50.910Z,2.84
2017-07-23T15:12:19.210Z,3.08
2017-07-23T15:14:47.469Z,2.80
2017-07-23T15:17:15.728Z,3.56
2017-07-23T15:19:44.021Z,3.08
2017-07-23T15:22:12.275Z,2.94
2017-07-23T15:24:40.583Z,3.24
2017-07-23T15:27:08.884Z,3.60
2017-07-23T15:29:37.148Z,2.90
2017-07-23T15:32:05.411Z,2.80
2017-07-23T15:34:33.734Z,3.42
2017-07-23T15:37:01.990Z,3.02
2017-07-23T15:39:30.252Z,3.70
2017-07-23T15:41:58.553Z,3.48
2017-07-23T15:44:26.812Z,3.14
2017-07-23T15:46:55.097Z,2.98
2017-07-23T15:49:23.373Z,3.24
2017-07-23T15:51:51.662Z,3.10
2017-07-23T15:54:19.955Z,2.86
2017-07-23T15:56:48.204Z,3.32
2017-07-23T15:59:16.475Z,3.98
2017-07-23T16:01:44.758Z,4.30
2017-07-23T16:04:13.019Z,3.70
2017-07-23T16:06:41.327Z,3.54
2017-07-23T16:09:09.598Z,3.80
2017-07-23T16:11:37.857Z,3.22
2017-07-23T16:14:06.136Z,2.96
2017-07-23T16:16:34.409Z,3.04
2017-07-23T16:19:02.703Z,3.36
2017-07-23T16:21:30.979Z,2.90
2017-07-23T16:24:00.261Z,2.88
2017-07-23T16:26:28.524Z,4.50
2017-07-23T16:28:57.706Z,3.62
2017-07-23T16:31:25.999Z,3.66
2017-07-23T16:33:54.424Z,2.92
2017-07-23T16:36:22.725Z,2.32
2017-07-23T16:38:50.989Z,2.52
2017-07-23T16:41:19.252Z,2.98
2017-07-23T16:43:47.563Z,2.52
2017-07-23T16:46:15.846Z,2.58
2017-07-23T16:48:44.107Z,3.34
2017-07-23T16:51:12.420Z,2.60
2017-07-23T16:53:40.691Z,3.06
2017-07-23T16:56:09.036Z,3.46
2017-07-23T16:58:37.337Z,3.08
2017-07-23T17:01:05.624Z,2.82
2017-07-23T17:03:33.915Z,3.36
2017-07-23T17:06:02.193Z,2.90
2017-07-23T17:08:30.469Z,3.60
2017-07-23T17:10:58.760Z,3.02
2017-07-23T17:13:27.017Z,3.04
2017-07-23T17:15:55.371Z,3.24
2017-07-23T17:18:23.619Z,3.16
2017-07-23T17:20:51.876Z,3.30
2017-07-23T17:23:20.160Z,5.20
2017-07-23T17:25:48.424Z,3.24
2017-07-23T17:28:19.425Z,4.06
2017-07-23T17:30:47.299Z,3.20
2017-07-23T17:33:15.600Z,3.64
2017-07-23T17:35:43.879Z,3.20
2017-07-23T17:38:11.388Z,2.82
2017-07-23T17:40:39.702Z,3.80
2017-07-23T17:43:07.964Z,3.22
2017-07-23T17:45:36.218Z,3.50
2017-07-23T17:48:04.507Z,2.62
2017-07-23T17:50:32.755Z,2.40
2017-07-23T17:53:01.070Z,2.88
2017-07-23T17:55:28.575Z,3.12
2017-07-23T17:57:56.878Z,3.04
2017-07-23T18:00:25.165Z,2.36
2017-07-23T18:02:53.428Z,3.76
2017-07-23T18:05:21.701Z,2.98
2017-07-23T18:07:50.000Z,3.08
2017-07-23T18:10:18.263Z,3.10
2017-07-23T18:12:46.520Z,3.18
2017-07-23T18:15:14.839Z,2.86
2017-07-23T18:17:43.112Z,2.64
2017-07-23T18:20:11.376Z,2.84
2017-07-23T18:22:39.670Z,2.70
2017-07-23T18:25:07.927Z,3.46
2017-07-23T18:27:35.468Z,2.86
2017-07-23T18:30:03.734Z,2.90
2017-07-23T18:32:31.996Z,3.00
2017-07-23T18:35:01.267Z,3.04
2017-07-23T18:37:29.519Z,2.92
2017-07-23T18:39:57.034Z,2.80
2017-07-23T18:42:25.316Z,2.86
2017-07-23T18:44:53.605Z,2.66
2017-07-23T18:47:21.131Z,2.66
2017-07-23T18:49:49.466Z,2.54
2017-07-23T18:52:17.736Z,3.22
2017-07-23T18:54:46.008Z,2.70
2017-07-23T18:57:14.309Z,2.60
2017-07-23T18:59:42.579Z,3.20
2017-07-23T19:02:10.871Z,2.38
2017-07-23T19:04:39.127Z,2.72
2017-07-23T19:07:07.629Z,2.52
2017-07-23T19:09:35.900Z,3.38
2017-07-23T19:12:04.192Z,2.82
2017-07-23T19:14:32.450Z,2.54
2017-07-23T19:17:00.744Z,3.02
2017-07-23T19:19:29.003Z,3.20
2017-07-23T19:21:57.313Z,3.00
2017-07-23T19:24:25.584Z,2.92
2017-07-23T19:26:53.853Z,3.10
2017-07-23T19:29:22.154Z,2.74
2017-07-23T19:31:50.417Z,3.42
2017-07-23T19:34:18.685Z,2.92
2017-07-23T19:36:46.974Z,3.64
2017-07-23T19:39:15.265Z,3.82
2017-07-23T19:41:43.541Z,3.20
2017-07-23T19:44:11.827Z,3.00
2017-07-23T19:46:40.088Z,3.30
2017-07-23T19:49:08.382Z,4.18
2017-07-23T19:51:36.693Z,3.62
2017-07-23T19:54:04.963Z,3.34
2017-07-23T19:56:33.258Z,3.12
2017-07-23T19:59:01.520Z,2.66
2017-07-23T20:01:29.771Z,2.98
2017-07-23T20:03:58.062Z,3.12
2017-07-23T20:06:26.328Z,3.34
2017-07-23T20:08:54.624Z,2.78
2017-07-23T20:11:22.925Z,3.36
2017-07-23T20:13:51.247Z,2.84
2017-07-23T20:16:19.503Z,2.92
2017-07-23T20:18:47.760Z,2.80
2017-07-23T20:21:16.060Z,3.10
2017-07-23T20:23:44.323Z,2.74
2017-07-23T20:26:12.607Z,3.32
2017-07-23T20:28:40.867Z,3.20
2017-07-23T20:33:42.796Z,5.30
2017-07-23T20:36:11.056Z,3.30
2017-07-23T20:38:39.305Z,2.88
2017-07-23T20:41:07.586Z,2.90
2017-07-23T20:43:35.864Z,3.26
2017-07-23T20:46:04.155Z,3.44
2017-07-23T20:48:32.404Z,2.80
2017-07-23T20:51:00.648Z,3.40
2017-07-23T20:53:28.942Z,2.70
2017-07-23T20:55:57.208Z,2.70
2017-07-23T20:58:25.481Z,2.96
2017-07-23T21:00:53.775Z,2.88
2017-07-23T21:03:22.032Z,2.92
2017-07-23T21:05:50.328Z,3.40
2017-07-23T21:08:18.612Z,2.68
2017-07-23T21:10:46.935Z,3.44
2017-07-23T21:13:15.203Z,3.34
2017-07-23T21:15:43.456Z,3.14
2017-07-23T21:18:11.735Z,3.26
2017-07-23T21:20:40.014Z,2.80
2017-07-23T21:23:08.330Z,3.18
2017-07-23T21:25:36.580Z,3.34
2017-07-23T21:28:04.841Z,2.90
2017-07-23T21:30:33.131Z,3.18
2017-07-23T21:33:01.387Z,3.12
2017-07-23T21:35:29.669Z,2.88
2017-07-23T21:37:57.956Z,2.98
2017-07-23T21:40:26.213Z,3.56
2017-07-23T21:42:54.529Z,3.48
2017-07-23T21:45:22.796Z,3.48
2017-07-23T21:47:51.050Z,4.20
2017-07-23T21:50:19.360Z,3.88
2017-07-23T21:52:47.618Z,3.32
2017-07-23T21:55:15.915Z,3.70
2017-07-23T21:57:44.186Z,3.50
2017-07-23T22:00:12.466Z,3.84
2017-07-23T22:02:40.740Z,4.12
2017-07-23T22:05:08.268Z,3.48
2017-07-23T22:07:36.589Z,3.62
2017-07-23T22:10:04.848Z,3.22
2017-07-23T22:12:33.103Z,4.10
2017-07-23T22:15:01.396Z,4.14
2017-07-23T22:17:29.655Z,3.76
2017-07-23T22:19:57.961Z,3.78
2017-07-23T22:22:26.213Z,3.26
2017-07-23T22:24:54.463Z,3.98
2017-07-23T22:27:22.755Z,3.38
2017-07-23T22:29:51.028Z,3.46
2017-07-23T22:32:19.333Z,3.64
2017-07-23T22:34:46.823Z,3.76
2017-07-23T22:37:15.082Z,3.32
2017-07-23T22:39:43.370Z,3.26
2017-07-23T22:42:11.627Z,3.04
2017-07-23T22:44:39.919Z,2.92
2017-07-23T22:47:08.233Z,2.98
2017-07-23T22:49:36.486Z,3.02
2017-07-23T22:52:04.747Z,2.80
2017-07-23T22:54:33.041Z,3.88
2017-07-23T22:57:01.338Z,3.44
2017-07-23T22:59:29.630Z,2.82
2017-07-23T23:01:57.898Z,3.20
2017-07-23T23:04:26.192Z,2.66
2017-07-23T23:06:54.503Z,3.14
2017-07-23T23:09:22.004Z,3.06
2017-07-23T23:11:50.292Z,2.80
2017-07-23T23:14:18.550Z,2.88
2017-07-23T23:16:46.844Z,2.70
2017-07-23T23:19:15.131Z,3.08
2017-07-23T23:21:43.440Z,3.26
2017-07-23T23:24:11.711Z,4.42
2017-07-23T23:26:39.973Z,3.34
2017-07-23T23:29:08.280Z,3.20
2017-07-23T23:31:36.552Z,2.78
2017-07-23T23:37:17.980Z,3.18
2017-07-23T23:48:20.548Z,2.72
2017-07-23T23:50:48.806Z,2.88
2017-07-23T23:53:17.076Z,3.26
2017-07-23T23:55:45.383Z,2.60
2017-07-23T23:58:13.644Z,3.50
